Time;durP1;ratioP1;P1;durP2;ratioP2;P2;SDS_P1;SDS_P2;PMS_P1;PMS_P2;Temp;Humidity;BMP_temperature;BMP_pressure;BME280_temperature;BME280_humidity;BME280_pressure;Samples;Min_cycle;Max_cycle;Signal;HPM_P1;HPM_P2
2023/03/05 00:01:23;;;;;;;8.05;2.00;;;;;;;;;;5131210;28;20088;-76
2023/03/05 00:03:53;;;;;;;5.60;1.75;;;;;;;;;;5097226;28;20043;-76
2023/03/05 00:06:19;;;;;;;7.57;2.15;;;;;;;;;;5133241;28;20050;-76
2023/03/05 00:08:46;;;;;;;9.77;1.90;;;;;;;;;;5133001;28;20074;-76
2023/03/05 00:11:12;;;;;;;6.95;1.95;;;;;;;;;;5131169;27;20068;-76
2023/03/05 00:13:38;;;;;;;6.53;1.85;;;;;;;;;;5134370;27;20035;-76
2023/03/05 00:16:05;;;;;;;8.82;2.05;;;;;;;;;;5134235;27;20507;-76
2023/03/05 00:18:31;;;;;;;7.80;2.00;;;;;;;;;;5114671;28;20491;-76
2023/03/05 00:20:57;;;;;;;9.73;1.88;;;;;;;;;;5149475;27;20068;-76
2023/03/05 00:23:23;;;;;;;10.30;2.15;;;;;;;;;;5117102;27;20086;-76
2023/03/05 00:25:49;;;;;;;7.80;2.08;;;;;;;;;;5135305;27;20043;-76
2023/03/05 00:28:16;;;;;;;5.32;1.90;;;;;;;;;;5151815;27;20045;-76
2023/03/05 00:30:42;;;;;;;7.80;2.00;;;;;;;;;;5152050;27;20119;-77
2023/03/05 00:33:08;;;;;;;8.43;2.22;;;;;;;;;;5128950;28;20498;-76
2023/03/05 00:35:41;;;;;;;5.10;1.92;;;;;;;;;;5136752;27;20394;-76
2023/03/05 00:38:07;;;;;;;8.23;2.05;;;;;;;;;;5119004;27;20546;-76
2023/03/05 00:40:37;;;;;;;9.18;2.10;;;;;;;;;;5140688;27;20391;-76
2023/03/05 00:43:03;;;;;;;8.20;2.00;;;;;;;;;;5132206;28;20039;-76
2023/03/05 00:45:29;;;;;;;10.25;2.42;;;;;;;;;;5131772;28;20042;-76
2023/03/05 00:47:55;;;;;;;13.38;2.72;;;;;;;;;;5131366;28;20045;-76
2023/03/05 00:50:21;;;;;;;6.90;2.00;;;;;;;;;;5132812;28;20128;-76
2023/03/05 00:52:47;;;;;;;5.78;2.10;;;;;;;;;;5132641;27;20080;-76
2023/03/05 00:55:13;;;;;;;6.25;2.05;;;;;;;;;;5136630;27;20078;-76
2023/03/05 00:57:39;;;;;;;7.57;1.80;;;;;;;;;;5136169;27;20373;-76
2023/03/05 01:00:05;;;;;;;8.15;1.90;;;;;;;;;;5136920;27;20039;-76
2023/03/05 01:02:31;;;;;;;6.35;1.98;;;;;;;;;;5136469;27;20046;-76
2023/03/05 01:04:58;;;;;;;5.95;2.08;;;;;;;;;;5118120;27;20142;-76
2023/03/05 01:07:24;;;;;;;6.47;1.73;;;;;;;;;;5117841;27;20047;-76
2023/03/05 01:09:50;;;;;;;4.93;1.60;;;;;;;;;;5117962;27;20150;-76
2023/03/05 01:12:16;;;;;;;5.63;1.42;;;;;;;;;;5117323;27;20054;-76
2023/03/05 01:14:42;;;;;;;9.38;2.03;;;;;;;;;;5118393;27;20392;-76
2023/03/05 01:17:08;;;;;;;5.70;1.55;;;;;;;;;;5138499;27;20039;-76
2023/03/05 01:19:34;;;;;;;6.28;1.70;;;;;;;;;;5152844;27;20428;-76
2023/03/05 01:22:00;;;;;;;6.53;1.63;;;;;;;;;;5127768;27;20089;-76
2023/03/05 01:24:26;;;;;;;4.25;1.48;;;;;;;;;;5149496;27;20077;-76
2023/03/05 01:26:52;;;;;;;5.88;1.70;;;;;;;;;;5137363;27;20039;-78
2023/03/05 01:29:18;;;;;;;3.80;1.58;;;;;;;;;;5136400;27;20426;-76
2023/03/05 01:31:44;;;;;;;6.53;1.50;;;;;;;;;;5124439;27;20039;-76
2023/03/05 01:34:10;;;;;;;9.50;1.70;;;;;;;;;;5109865;28;20044;-76
2023/03/05 01:36:36;;;;;;;6.97;1.85;;;;;;;;;;5108970;27;20039;-76
2023/03/05 01:39:02;;;;;;;8.77;2.00;;;;;;;;;;5146724;27;20041;-76
2023/03/05 01:41:28;;;;;;;6.20;2.20;;;;;;;;;;5135602;27;20038;-76
2023/03/05 01:43:54;;;;;;;5.07;1.80;;;;;;;;;;5100283;27;20043;-76
2023/03/05 01:46:26;;;;;;;6.72;1.90;;;;;;;;;;5148019;27;20047;-76
2023/03/05 01:49:01;;;;;;;6.32;1.90;;;;;;;;;;5135880;27;20103;-76
2023/03/05 01:51:30;;;;;;;7.05;1.70;;;;;;;;;;5135479;27;20051;-76
2023/03/05 01:53:57;;;;;;;5.18;1.73;;;;;;;;;;5134604;27;20046;-76
2023/03/05 01:56:24;;;;;;;8.52;2.03;;;;;;;;;;5134182;27;20145;-76
2023/03/05 01:58:51;;;;;;;6.32;1.90;;;;;;;;;;5133946;27;20039;-76
2023/03/05 02:01:18;;;;;;;6.70;2.00;;;;;;;;;;5134468;27;20391;-76
2023/03/05 02:03:44;;;;;;;4.50;1.80;;;;;;;;;;5134941;27;20043;-76
2023/03/05 02:06:10;;;;;;;4.82;1.77;;;;;;;;;;5135088;27;20391;-76
2023/03/05 02:08:36;;;;;;;6.43;1.70;;;;;;;;;;5134833;27;20570;-76
2023/03/05 02:11:03;;;;;;;8.50;1.90;;;;;;;;;;5116881;27;20070;-76
2023/03/05 02:13:31;;;;;;;7.70;1.80;;;;;;;;;;5116325;27;20093;-76
2023/03/05 02:15:58;;;;;;;7.22;1.77;;;;;;;;;;5116938;27;20039;-76
2023/03/05 02:18:24;;;;;;;6.00;1.83;;;;;;;;;;5116492;27;20031;-76
2023/03/05 02:20:56;;;;;;;4.38;1.88;;;;;;;;;;5129157;27;20035;-76
2023/03/05 02:23:24;;;;;;;6.82;2.20;;;;;;;;;;5122228;27;20495;-76
2023/03/05 02:25:50;;;;;;;7.35;1.63;;;;;;;;;;5141093;27;20039;-76
2023/03/05 02:28:36;;;;;;;6.60;1.98;;;;;;;;;;5116153;27;20475;-76
2023/03/05 02:31:02;;;;;;;7.20;1.90;;;;;;;;;;5136012;27;20039;-76
2023/03/05 02:33:28;;;;;;;8.90;1.90;;;;;;;;;;5145843;27;20540;-76
2023/03/05 02:35:54;;;;;;;6.68;1.95;;;;;;;;;;5116044;27;20116;-76
2023/03/05 02:38:20;;;;;;;5.97;1.75;;;;;;;;;;5117325;27;20046;-76
2023/03/05 02:40:47;;;;;;;6.18;1.90;;;;;;;;;;5127405;27;20083;-76
2023/03/05 02:43:13;;;;;;;4.00;1.58;;;;;;;;;;5134343;27;20046;-76
2023/03/05 02:45:39;;;;;;;5.50;1.77;;;;;;;;;;5127070;27;20126;-76
2023/03/05 02:48:05;;;;;;;6.75;1.80;;;;;;;;;;5134244;27;20062;-76
2023/03/05 02:50:31;;;;;;;6.75;2.10;;;;;;;;;;5134381;27;20517;-76
2023/03/05 02:52:57;;;;;;;5.40;1.65;;;;;;;;;;5134086;27;20049;-76
2023/03/05 02:55:23;;;;;;;5.53;1.63;;;;;;;;;;5133166;27;20391;-76
2023/03/05 02:57:49;;;;;;;4.15;1.60;;;;;;;;;;5121642;27;20095;-76
2023/03/05 03:00:16;;;;;;;3.00;1.35;;;;;;;;;;5115941;27;20039;-76
2023/03/05 03:02:42;;;;;;;8.23;1.60;;;;;;;;;;5133889;27;20040;-76
2023/03/05 03:05:08;;;;;;;4.72;1.77;;;;;;;;;;5134425;27;20381;-76
2023/03/05 03:07:35;;;;;;;6.43;1.98;;;;;;;;;;5134025;27;20047;-76
2023/03/05 03:10:01;;;;;;;8.32;1.90;;;;;;;;;;5134087;27;20055;-76
2023/03/05 03:12:27;;;;;;;6.72;2.00;;;;;;;;;;5098444;27;20107;-76
2023/03/05 03:14:53;;;;;;;5.10;1.77;;;;;;;;;;5115341;27;20043;-76
2023/03/05 03:17:19;;;;;;;8.07;1.90;;;;;;;;;;5133327;27;20047;-76
2023/03/05 03:19:47;;;;;;;7.38;1.83;;;;;;;;;;5148928;27;20112;-76
2023/03/05 03:22:13;;;;;;;10.23;2.08;;;;;;;;;;5120592;27;20126;-76
2023/03/05 03:24:40;;;;;;;8.38;1.90;;;;;;;;;;5126072;27;20050;-76
2023/03/05 03:27:07;;;;;;;7.88;2.03;;;;;;;;;;5128849;27;20038;-76
2023/03/05 03:29:33;;;;;;;8.77;2.00;;;;;;;;;;5153112;27;20087;-76
2023/03/05 03:31:59;;;;;;;8.93;2.30;;;;;;;;;;5133544;27;20039;-76
2023/03/05 03:34:25;;;;;;;7.45;2.30;;;;;;;;;;5154474;27;20457;-76
2023/03/05 03:36:51;;;;;;;5.55;1.75;;;;;;;;;;5111034;27;20038;-76
2023/03/05 03:39:18;;;;;;;6.20;2.10;;;;;;;;;;5133971;27;20483;-76
2023/03/05 03:41:45;;;;;;;7.25;2.22;;;;;;;;;;5111025;28;20507;-76
2023/03/05 03:44:12;;;;;;;8.30;2.20;;;;;;;;;;5115862;27;20492;-76
2023/03/05 03:46:39;;;;;;;7.72;2.00;;;;;;;;;;5136366;27;20054;-76
2023/03/05 03:49:05;;;;;;;7.70;1.90;;;;;;;;;;5146994;27;20490;-76
2023/03/05 03:51:31;;;;;;;7.60;2.20;;;;;;;;;;5126104;27;20403;-76
2023/03/05 03:53:58;;;;;;;7.32;2.42;;;;;;;;;;5114667;27;20039;-76
2023/03/05 03:56:24;;;;;;;5.38;1.80;;;;;;;;;;5130575;27;20129;-76
2023/03/05 03:58:51;;;;;;;5.30;1.70;;;;;;;;;;5098466;27;20202;-76
2023/03/05 04:01:17;;;;;;;6.90;1.70;;;;;;;;;;5107418;28;20047;-76
2023/03/05 04:03:43;;;;;;;10.65;1.90;;;;;;;;;;5102435;28;20031;-76
2023/03/05 04:06:09;;;;;;;5.05;1.70;;;;;;;;;;5114601;28;20076;-76
2023/03/05 04:08:35;;;;;;;5.28;1.92;;;;;;;;;;5114772;28;20124;-76
2023/03/05 04:11:02;;;;;;;5.90;1.83;;;;;;;;;;5109484;27;20046;-76
2023/03/05 04:13:28;;;;;;;5.43;1.80;;;;;;;;;;5118820;28;20043;-76
2023/03/05 04:15:54;;;;;;;5.57;1.75;;;;;;;;;;5116142;27;20413;-76
2023/03/05 04:18:21;;;;;;;10.75;2.35;;;;;;;;;;5145434;27;20125;-76
2023/03/05 04:20:47;;;;;;;6.13;1.90;;;;;;;;;;5152267;27;20047;-76
2023/03/05 04:23:13;;;;;;;5.15;1.83;;;;;;;;;;5153093;27;20098;-76
2023/03/05 04:25:39;;;;;;;4.50;1.98;;;;;;;;;;5122592;28;20046;-76
2023/03/05 04:28:05;;;;;;;7.13;2.15;;;;;;;;;;5130680;27;20383;-76
2023/03/05 04:30:31;;;;;;;5.78;2.03;;;;;;;;;;5138201;27;20387;-76
2023/03/05 04:32:58;;;;;;;7.57;1.98;;;;;;;;;;5148934;27;20050;-75
2023/03/05 04:35:24;;;;;;;6.22;2.05;;;;;;;;;;5138949;27;20043;-75
2023/03/05 04:37:50;;;;;;;6.00;1.95;;;;;;;;;;5126891;27;20515;-75
2023/03/05 04:40:16;;;;;;;4.07;1.65;;;;;;;;;;5138478;27;20521;-75
2023/03/05 04:42:43;;;;;;;4.35;1.70;;;;;;;;;;5143257;27;20122;-75
2023/03/05 04:45:09;;;;;;;7.25;1.77;;;;;;;;;;5101574;27;20144;-75
2023/03/05 04:47:36;;;;;;;5.32;1.70;;;;;;;;;;5122510;27;20050;-75
2023/03/05 04:50:03;;;;;;;7.63;1.85;;;;;;;;;;5135586;27;20046;-75
2023/03/05 04:52:29;;;;;;;6.38;1.88;;;;;;;;;;5135295;27;20054;-75
2023/03/05 04:54:55;;;;;;;6.28;2.00;;;;;;;;;;5134731;27;20058;-75
2023/03/05 04:57:21;;;;;;;10.35;2.33;;;;;;;;;;5136586;27;20050;-75
2023/03/05 04:59:47;;;;;;;5.10;2.10;;;;;;;;;;5136468;27;20068;-75
2023/03/05 05:02:13;;;;;;;7.25;1.85;;;;;;;;;;5136462;27;20095;-75
2023/03/05 05:04:43;;;;;;;8.95;1.90;;;;;;;;;;5136066;27;20039;-75
2023/03/05 05:07:09;;;;;;;5.90;1.77;;;;;;;;;;5118043;27;20418;-75
2023/03/05 05:09:35;;;;;;;6.07;2.25;;;;;;;;;;5136365;27;20058;-75
2023/03/05 05:12:01;;;;;;;7.82;2.00;;;;;;;;;;5117950;27;20106;-76
2023/03/05 05:14:27;;;;;;;6.20;2.00;;;;;;;;;;5136459;27;20492;-76
2023/03/05 05:16:56;;;;;;;9.07;2.03;;;;;;;;;;5117806;27;20122;-75
2023/03/05 05:19:22;;;;;;;5.28;1.92;;;;;;;;;;5136407;27;20046;-75
2023/03/05 05:21:48;;;;;;;6.22;1.92;;;;;;;;;;5137342;27;20047;-76
2023/03/05 05:24:14;;;;;;;5.78;1.73;;;;;;;;;;5132592;27;20035;-75
2023/03/05 05:26:40;;;;;;;5.10;1.70;;;;;;;;;;5156274;27;20050;-75
2023/03/05 05:29:06;;;;;;;6.32;1.88;;;;;;;;;;5147442;27;20128;-75
2023/03/05 05:31:32;;;;;;;5.13;1.70;;;;;;;;;;5116960;27;20078;-76
2023/03/05 05:33:58;;;;;;;2.60;1.50;;;;;;;;;;5127815;27;20487;-75
2023/03/05 05:36:24;;;;;;;5.68;1.80;;;;;;;;;;5130802;27;20421;-76
2023/03/05 05:38:50;;;;;;;5.03;1.70;;;;;;;;;;5117001;27;20082;-75
2023/03/05 05:41:17;;;;;;;8.88;1.70;;;;;;;;;;5148599;27;20107;-76
2023/03/05 05:43:43;;;;;;;7.35;1.85;;;;;;;;;;5122578;27;20077;-75
2023/03/05 05:46:12;;;;;;;4.72;1.40;;;;;;;;;;5142056;27;20368;-75
2023/03/05 05:48:38;;;;;;;6.50;1.88;;;;;;;;;;5128130;27;20042;-75
2023/03/05 05:51:05;;;;;;;5.82;1.80;;;;;;;;;;5140683;27;20050;-76
2023/03/05 05:53:32;;;;;;;5.78;1.90;;;;;;;;;;5126899;27;20425;-75
2023/03/05 05:55:58;;;;;;;5.57;1.70;;;;;;;;;;5125443;27;20129;-76
2023/03/05 05:58:24;;;;;;;8.32;2.08;;;;;;;;;;5117202;27;20073;-76
2023/03/05 06:00:50;;;;;;;7.28;1.70;;;;;;;;;;5150187;27;20419;-76
2023/03/05 06:03:16;;;;;;;9.57;1.67;;;;;;;;;;5118850;27;20449;-75
2023/03/05 06:05:42;;;;;;;6.55;2.22;;;;;;;;;;5135312;27;20054;-75
2023/03/05 06:08:08;;;;;;;8.50;2.00;;;;;;;;;;5134974;27;20548;-76
2023/03/05 06:10:34;;;;;;;5.32;1.70;;;;;;;;;;5116704;27;20058;-75
2023/03/05 06:13:00;;;;;;;4.45;1.80;;;;;;;;;;5130524;27;20054;-75
2023/03/05 06:15:26;;;;;;;5.63;1.73;;;;;;;;;;5153447;27;20475;-76
2023/03/05 06:17:53;;;;;;;6.75;1.70;;;;;;;;;;5136648;27;20062;-76
2023/03/05 06:20:19;;;;;;;10.60;1.92;;;;;;;;;;5135206;27;20046;-75
2023/03/05 06:22:45;;;;;;;6.28;1.77;;;;;;;;;;5116743;27;20066;-75
2023/03/05 06:25:11;;;;;;;4.80;1.70;;;;;;;;;;5136991;27;20047;-75
2023/03/05 06:27:38;;;;;;;3.65;1.65;;;;;;;;;;5155160;27;20057;-75
2023/03/05 06:30:05;;;;;;;5.60;1.60;;;;;;;;;;5108247;28;20051;-75
2023/03/05 06:32:31;;;;;;;4.40;1.70;;;;;;;;;;5127079;27;20051;-76
2023/03/05 06:34:57;;;;;;;6.30;1.77;;;;;;;;;;5109949;27;20035;-76
2023/03/05 06:37:23;;;;;;;5.05;1.70;;;;;;;;;;5136090;27;20039;-76
2023/03/05 06:39:49;;;;;;;9.90;1.70;;;;;;;;;;5127369;27;20046;-76
2023/03/05 06:42:18;;;;;;;5.70;1.83;;;;;;;;;;5136992;27;20050;-76
2023/03/05 06:44:44;;;;;;;6.82;1.73;;;;;;;;;;5118669;27;20043;-77
2023/03/05 06:47:11;;;;;;;5.05;1.73;;;;;;;;;;5108453;27;20441;-77
2023/03/05 06:49:37;;;;;;;8.10;1.80;;;;;;;;;;5132396;27;20031;-77
2023/03/05 06:52:04;;;;;;;7.63;2.05;;;;;;;;;;5132692;27;20066;-77
2023/03/05 06:54:30;;;;;;;5.85;1.83;;;;;;;;;;5134158;27;20043;-76
2023/03/05 06:56:56;;;;;;;5.55;2.20;;;;;;;;;;5128235;27;20475;-76
2023/03/05 06:59:22;;;;;;;7.07;2.42;;;;;;;;;;5116407;27;20035;-77
2023/03/05 07:01:48;;;;;;;6.63;2.30;;;;;;;;;;5118074;27;20118;-77
2023/03/05 07:04:15;;;;;;;6.32;1.92;;;;;;;;;;5122758;27;20099;-76
2023/03/05 07:06:41;;;;;;;9.55;2.08;;;;;;;;;;5128438;27;20066;-77
2023/03/05 07:09:08;;;;;;;4.32;1.65;;;;;;;;;;5149459;27;20046;-77
2023/03/05 07:11:34;;;;;;;5.03;1.77;;;;;;;;;;5146720;27;20436;-77
2023/03/05 07:14:00;;;;;;;6.95;1.90;;;;;;;;;;5131566;27;20502;-76
2023/03/05 07:16:31;;;;;;;5.70;1.75;;;;;;;;;;5115753;27;20499;-76
2023/03/05 07:18:57;;;;;;;5.63;1.77;;;;;;;;;;5115766;27;20039;-76
2023/03/05 07:21:25;;;;;;;5.95;2.00;;;;;;;;;;5098609;27;20126;-76
2023/03/05 07:23:55;;;;;;;7.28;1.90;;;;;;;;;;5141646;27;20042;-77
2023/03/05 07:26:21;;;;;;;6.13;1.90;;;;;;;;;;5122358;27;20066;-76
2023/03/05 07:28:47;;;;;;;6.13;2.03;;;;;;;;;;5132910;27;20035;-77
2023/03/05 07:31:15;;;;;;;7.05;1.98;;;;;;;;;;5131712;27;20040;-74
2023/03/05 07:33:41;;;;;;;6.30;2.30;;;;;;;;;;5118664;27;20196;-74
2023/03/05 07:36:08;;;;;;;5.97;1.90;;;;;;;;;;5104729;27;20058;-75
2023/03/05 07:38:34;;;;;;;8.95;2.03;;;;;;;;;;5116190;27;20047;-75
2023/03/05 07:41:05;;;;;;;4.78;1.65;;;;;;;;;;5115040;27;20059;-75
2023/03/05 07:43:31;;;;;;;8.45;1.90;;;;;;;;;;5114585;27;20038;-75
2023/03/05 07:45:57;;;;;;;9.40;2.10;;;;;;;;;;5131333;27;20035;-75
2023/03/05 07:48:23;;;;;;;5.80;1.88;;;;;;;;;;5132637;27;20039;-74
2023/03/05 07:50:49;;;;;;;7.65;1.90;;;;;;;;;;5117550;27;20104;-75
2023/03/05 07:53:15;;;;;;;7.38;1.70;;;;;;;;;;5134096;27;20542;-75
2023/03/05 07:55:43;;;;;;;8.55;2.15;;;;;;;;;;5115077;27;20039;-74
2023/03/05 07:58:09;;;;;;;7.07;2.00;;;;;;;;;;5133207;27;20043;-75
2023/03/05 08:00:35;;;;;;;6.00;2.00;;;;;;;;;;5125280;27;20117;-75
2023/03/05 08:03:01;;;;;;;5.32;1.80;;;;;;;;;;5113192;27;20126;-75
2023/03/05 08:05:27;;;;;;;6.78;1.80;;;;;;;;;;5114726;28;20096;-75
2023/03/05 08:07:53;;;;;;;7.40;1.92;;;;;;;;;;5119646;27;20071;-75
2023/03/05 08:10:19;;;;;;;6.35;1.83;;;;;;;;;;5120131;28;20058;-75
2023/03/05 08:12:45;;;;;;;6.88;2.25;;;;;;;;;;5111201;28;20472;-76
2023/03/05 08:15:11;;;;;;;10.40;2.10;;;;;;;;;;5131555;28;20123;-75
2023/03/05 08:17:37;;;;;;;6.43;1.73;;;;;;;;;;5131915;28;20399;-76
2023/03/05 08:20:08;;;;;;;6.75;1.75;;;;;;;;;;5133164;28;20054;-76
2023/03/05 08:22:34;;;;;;;9.60;2.03;;;;;;;;;;5131574;28;20046;-75
2023/03/05 08:25:00;;;;;;;10.65;2.10;;;;;;;;;;5131615;28;20526;-75
2023/03/05 08:27:26;;;;;;;6.47;2.00;;;;;;;;;;5110925;28;20047;-75
2023/03/05 08:29:53;;;;;;;9.98;2.10;;;;;;;;;;5114070;28;20039;-75
2023/03/05 08:32:19;;;;;;;7.30;2.00;;;;;;;;;;5114174;28;20047;-75
2023/03/05 08:34:45;;;;;;;10.20;2.35;;;;;;;;;;5132098;28;20036;-76
2023/03/05 08:37:11;;;;;;;11.30;3.00;;;;;;;;;;5132036;28;20091;-75
2023/03/05 08:39:37;;;;;;;9.27;2.45;;;;;;;;;;5134101;27;20035;-75
2023/03/05 08:42:03;;;;;;;9.43;4.22;;;;;;;;;;5102332;28;20054;-76
2023/03/05 08:44:30;;;;;;;8.75;2.40;;;;;;;;;;5096324;28;20084;-75
2023/03/05 08:46:56;;;;;;;7.70;1.88;;;;;;;;;;5124888;27;20039;-75
2023/03/05 08:49:22;;;;;;;7.10;2.03;;;;;;;;;;5116310;28;20134;-75
2023/03/05 08:51:48;;;;;;;8.45;1.88;;;;;;;;;;5115488;28;20050;-75
2023/03/05 08:54:14;;;;;;;10.27;1.88;;;;;;;;;;5130930;28;20484;-75
2023/03/05 08:56:40;;;;;;;6.88;2.20;;;;;;;;;;5132807;28;20043;-75
2023/03/05 08:59:07;;;;;;;8.27;2.42;;;;;;;;;;5132922;28;20497;-75
2023/03/05 09:01:33;;;;;;;6.88;1.90;;;;;;;;;;5131495;28;20096;-75
2023/03/05 09:03:59;;;;;;;7.35;1.73;;;;;;;;;;5125939;28;20044;-75
2023/03/05 09:06:26;;;;;;;8.43;2.30;;;;;;;;;;5131388;28;20403;-76
2023/03/05 09:08:52;;;;;;;4.70;1.70;;;;;;;;;;5130896;27;20483;-75
2023/03/05 09:11:18;;;;;;;7.03;1.73;;;;;;;;;;5131296;28;20047;-76
2023/03/05 09:13:44;;;;;;;4.47;1.50;;;;;;;;;;5114505;27;20039;-76
2023/03/05 09:16:12;;;;;;;3.40;1.48;;;;;;;;;;5122050;27;20043;-75
2023/03/05 09:18:39;;;;;;;2.13;1.05;;;;;;;;;;5156723;27;20042;-75
2023/03/05 09:21:10;;;;;;;3.15;1.30;;;;;;;;;;5150296;27;20118;-75
2023/03/05 09:23:36;;;;;;;2.78;1.35;;;;;;;;;;5135929;27;20092;-75
2023/03/05 09:26:04;;;;;;;4.82;1.30;;;;;;;;;;5118989;27;20066;-75
2023/03/05 09:28:30;;;;;;;3.85;1.30;;;;;;;;;;5100731;27;20075;-75
2023/03/05 09:30:56;;;;;;;3.58;1.40;;;;;;;;;;5053427;22;21516;-75
2023/03/05 09:33:22;;;;;;;2.63;1.20;;;;;;;;;;5047598;28;20056;-75
2023/03/05 09:35:48;;;;;;;5.13;1.35;;;;;;;;;;5070014;28;20040;-75
2023/03/05 09:38:14;;;;;;;2.97;1.40;;;;;;;;;;5034055;28;20135;-75
2023/03/05 09:40:44;;;;;;;3.08;1.50;;;;;;;;;;5070044;28;20464;-75
2023/03/05 09:43:16;;;;;;;3.70;1.27;;;;;;;;;;5049603;28;20588;-76
2023/03/05 09:46:00;;;;;;;3.47;1.20;;;;;;;;;;5069110;28;20183;-76
2023/03/05 09:48:42;;;;;;;3.28;1.42;;;;;;;;;;5069462;28;20056;-74
2023/03/05 09:51:13;;;;;;;5.15;1.50;;;;;;;;;;5052165;28;20048;-73
2023/03/05 09:53:51;;;;;;;6.35;1.60;;;;;;;;;;5050621;28;20079;-74
2023/03/05 09:56:22;;;;;;;5.25;1.50;;;;;;;;;;5070446;28;20066;-72
2023/03/05 09:58:48;;;;;;;3.85;1.55;;;;;;;;;;5050092;28;20451;-72
2023/03/05 10:01:22;;;;;;;6.03;1.85;;;;;;;;;;5020788;28;20036;-73
2023/03/05 10:03:51;;;;;;;7.88;1.67;;;;;;;;;;5069290;28;20045;-72
2023/03/05 10:06:21;;;;;;;4.45;1.50;;;;;;;;;;5031870;28;20183;-73
2023/03/05 10:08:47;;;;;;;6.03;1.60;;;;;;;;;;5031465;28;20471;-73
2023/03/05 10:11:36;;;;;;;5.13;1.50;;;;;;;;;;5058777;28;20080;-74
2023/03/05 10:14:03;;;;;;;7.00;1.60;;;;;;;;;;5039993;28;20052;-72
2023/03/05 10:16:48;;;;;;;6.93;1.40;;;;;;;;;;5148506;22;20056;-74
2023/03/05 10:19:25;;;;;;;9.07;1.55;;;;;;;;;;5076434;28;20036;-76
2023/03/05 10:22:12;;;;;;;4.55;1.50;;;;;;;;;;5072368;28;20048;-76
2023/03/05 10:24:54;;;;;;;5.47;1.77;;;;;;;;;;5071656;28;20400;-76
2023/03/05 10:27:21;;;;;;;6.07;1.70;;;;;;;;;;5077895;28;20044;-76
2023/03/05 10:29:54;;;;;;;8.23;1.52;;;;;;;;;;5089636;28;20044;-76
2023/03/05 10:32:23;;;;;;;4.88;1.60;;;;;;;;;;5090410;28;20060;-76
2023/03/05 10:35:01;;;;;;;5.70;1.80;;;;;;;;;;5089926;28;20046;-76
2023/03/05 10:37:49;;;;;;;5.60;1.90;;;;;;;;;;5073951;28;20083;-76
2023/03/05 10:40:19;;;;;;;5.20;1.58;;;;;;;;;;5089397;28;20048;-76
2023/03/05 10:42:50;;;;;;;8.25;1.60;;;;;;;;;;5084736;28;20040;-76
2023/03/05 10:45:18;;;;;;;4.13;1.50;;;;;;;;;;5072720;28;20492;-77
2023/03/05 10:47:53;;;;;;;4.50;1.50;;;;;;;;;;5071433;28;20086;-77
2023/03/05 10:50:24;;;;;;;9.82;1.50;;;;;;;;;;5069657;28;20047;-77
2023/03/05 10:52:54;;;;;;;6.50;1.55;;;;;;;;;;5069695;28;20469;-77
2023/03/05 10:55:22;;;;;;;5.15;1.58;;;;;;;;;;5083278;28;20472;-78
2023/03/05 10:57:48;;;;;;;6.50;1.40;;;;;;;;;;5064514;28;20540;-78
2023/03/05 11:00:24;;;;;;;5.20;1.67;;;;;;;;;;5071245;28;20185;-77
2023/03/05 11:03:04;;;;;;;3.13;1.10;;;;;;;;;;5089147;28;20118;-78
2023/03/05 11:05:40;;;;;;;6.07;1.50;;;;;;;;;;5072886;28;20051;-77
2023/03/05 11:08:21;;;;;;;7.07;1.40;;;;;;;;;;5091662;28;20040;-78
2023/03/05 11:10:47;;;;;;;4.93;1.58;;;;;;;;;;5089281;28;20048;-77
2023/03/05 11:13:26;;;;;;;10.27;1.60;;;;;;;;;;5086036;28;20052;-77
2023/03/05 11:16:00;;;;;;;4.20;1.88;;;;;;;;;;5069494;28;20052;-77
2023/03/05 11:18:27;;;;;;;6.40;1.80;;;;;;;;;;5052228;28;20056;-78
2023/03/05 11:21:06;;;;;;;6.30;2.00;;;;;;;;;;5052977;28;20044;-77
2023/03/05 11:23:32;;;;;;;7.75;1.90;;;;;;;;;;5068490;28;20508;-78
2023/03/05 11:26:01;;;;;;;6.75;1.60;;;;;;;;;;5071389;28;20079;-79
2023/03/05 11:28:27;;;;;;;4.70;1.40;;;;;;;;;;5085820;28;20094;-77
2023/03/05 11:30:55;;;;;;;4.13;1.30;;;;;;;;;;5089266;28;20468;-78
2023/03/05 11:33:22;;;;;;;2.92;1.27;;;;;;;;;;5091303;28;20059;-78
2023/03/05 11:35:49;;;;;;;4.10;1.30;;;;;;;;;;5088478;28;20101;-76
2023/03/05 11:38:23;;;;;;;3.60;1.25;;;;;;;;;;5084780;28;20048;-75
2023/03/05 11:40:50;;;;;;;5.10;1.23;;;;;;;;;;5088197;28;20074;-75
2023/03/05 11:43:18;;;;;;;3.65;1.20;;;;;;;;;;5088606;28;20470;-76
2023/03/05 11:45:44;;;;;;;3.15;1.30;;;;;;;;;;5086590;28;20056;-75
2023/03/05 11:48:17;;;;;;;7.13;1.83;;;;;;;;;;5089538;28;20048;-75
2023/03/05 11:50:44;;;;;;;3.63;1.23;;;;;;;;;;5088198;28;20064;-75
2023/03/05 11:53:18;;;;;;;6.22;1.10;;;;;;;;;;5089284;28;20044;-75
2023/03/05 11:56:13;;;;;;;4.57;1.65;;;;;;;;;;5089785;28;20067;-75
2023/03/05 11:58:49;;;;;;;3.57;1.33;;;;;;;;;;5075552;28;20385;-75
2023/03/05 12:01:17;;;;;;;5.25;1.63;;;;;;;;;;5087987;28;20502;-76
2023/03/05 12:03:43;;;;;;;5.47;1.75;;;;;;;;;;5087775;28;20120;-76
2023/03/05 12:06:15;;;;;;;6.72;1.45;;;;;;;;;;5086577;28;20155;-76
2023/03/05 12:08:44;;;;;;;5.10;1.40;;;;;;;;;;5088255;28;20169;-76
2023/03/05 12:11:18;;;;;;;5.15;1.50;;;;;;;;;;5089800;28;20423;-76
2023/03/05 12:13:47;;;;;;;4.50;1.30;;;;;;;;;;5089113;28;20047;-76
2023/03/05 12:16:16;;;;;;;4.65;1.60;;;;;;;;;;5087776;28;20418;-76
2023/03/05 12:18:54;;;;;;;4.90;1.55;;;;;;;;;;5086242;28;20040;-86
2023/03/05 12:21:35;;;;;;;4.28;1.27;;;;;;;;;;5089254;28;20044;-80
2023/03/05 12:24:02;;;;;;;5.25;1.40;;;;;;;;;;5090809;28;20131;-80
2023/03/05 12:26:47;;;;;;;3.20;1.13;;;;;;;;;;5082709;28;20041;-80
2023/03/05 12:29:30;;;;;;;5.05;1.15;;;;;;;;;;5089942;28;20122;-80
2023/03/05 12:31:57;;;;;;;4.40;1.40;;;;;;;;;;5073601;28;20079;-81
2023/03/05 12:34:36;;;;;;;6.95;1.75;;;;;;;;;;5090665;28;20514;-80
2023/03/05 12:37:03;;;;;;;3.70;1.33;;;;;;;;;;5089253;28;20127;-80
2023/03/05 12:39:46;;;;;;;4.15;1.45;;;;;;;;;;5089916;28;20380;-79
2023/03/05 12:42:27;;;;;;;4.97;1.58;;;;;;;;;;5091195;28;20054;-80
2023/03/05 12:45:10;;;;;;;4.70;1.88;;;;;;;;;;5091977;28;20411;-80
2023/03/05 12:47:39;;;;;;;5.45;1.50;;;;;;;;;;5088140;28;20075;-80
2023/03/05 12:50:25;;;;;;;4.82;1.50;;;;;;;;;;5093504;28;20040;-80
2023/03/05 12:52:51;;;;;;;;;;;;;;;;;;5096029;28;20048;-79
2023/03/05 12:55:19;;;;;;;5.18;1.40;;;;;;;;;;5078697;28;19927;-80
2023/03/05 12:57:46;;;;;;;8.40;1.70;;;;;;;;;;5076262;28;20044;-81
2023/03/05 13:00:24;;;;;;;3.35;1.40;;;;;;;;;;5075387;28;20055;-81
2023/03/05 13:02:56;;;;;;;5.28;1.48;;;;;;;;;;5073740;28;20522;-80
2023/03/05 13:05:28;;;;;;;6.53;1.60;;;;;;;;;;5074115;28;20040;-81
2023/03/05 13:08:08;;;;;;;5.35;1.50;;;;;;;;;;5073753;28;20056;-81
2023/03/05 13:10:34;;;;;;;5.82;1.75;;;;;;;;;;5074043;28;20131;-80
2023/03/05 13:13:01;;;;;;;6.22;1.30;;;;;;;;;;5087636;28;20048;-80
2023/03/05 13:15:28;;;;;;;7.75;1.70;;;;;;;;;;5092480;28;20044;-81
2023/03/05 13:18:02;;;;;;;5.68;1.50;;;;;;;;;;5093676;28;20091;-80
2023/03/05 13:20:32;;;;;;;4.82;1.50;;;;;;;;;;5094721;28;20075;-80
2023/03/05 13:23:11;;;;;;;5.25;1.60;;;;;;;;;;5076889;28;20065;-80
2023/03/05 13:25:37;;;;;;;8.77;1.90;;;;;;;;;;5093709;28;20037;-80
2023/03/05 13:28:13;;;;;;;5.97;1.65;;;;;;;;;;5089617;28;20100;-80
2023/03/05 13:30:44;;;;;;;7.50;1.50;;;;;;;;;;5094241;28;20431;-81
2023/03/05 13:33:16;;;;;;;4.20;1.50;;;;;;;;;;5086327;28;20178;-80
2023/03/05 13:35:44;;;;;;;4.80;1.50;;;;;;;;;;5056177;28;20043;-80
2023/03/05 13:38:21;;;;;;;3.88;1.48;;;;;;;;;;5071768;28;20059;-80
2023/03/05 13:41:00;;;;;;;6.35;1.60;;;;;;;;;;5093157;28;20036;-80
2023/03/05 13:43:26;;;;;;;7.03;1.63;;;;;;;;;;5073459;28;20070;-81
2023/03/05 13:45:53;;;;;;;4.80;1.45;;;;;;;;;;5093262;28;20044;-81
2023/03/05 13:48:19;;;;;;;5.38;1.60;;;;;;;;;;5076298;28;20430;-81
2023/03/05 13:50:47;;;;;;;4.05;1.27;;;;;;;;;;5092719;28;20052;-81
2023/03/05 13:53:30;;;;;;;6.97;1.42;;;;;;;;;;5073851;28;20083;-81
2023/03/05 13:55:57;;;;;;;4.07;1.30;;;;;;;;;;5094673;28;20048;-81
2023/03/05 13:58:59;;;;;;;7.35;1.40;;;;;;;;;;5073480;28;20491;-81
2023/03/05 14:01:42;;;;;;;8.10;1.60;;;;;;;;;;5010150;28;20049;-81
2023/03/05 14:04:18;;;;;;;4.47;1.55;;;;;;;;;;5101579;28;20387;-81
2023/03/05 14:06:44;;;;;;;;;;;;;;;;;;5093929;28;20044;-81
2023/03/05 14:09:19;;;;;;;4.47;1.38;;;;;;;;;;5094347;28;19924;-81
2023/03/05 14:11:55;;;;;;;5.63;1.70;;;;;;;;;;5076268;28;20052;-81
2023/03/05 14:14:22;;;;;;;7.78;1.60;;;;;;;;;;5093119;28;20040;-81
2023/03/05 14:16:48;;;;;;;7.07;1.83;;;;;;;;;;5075102;28;20067;-81
2023/03/05 14:19:30;;;;;;;8.73;1.90;;;;;;;;;;5093204;28;20052;-81
2023/03/05 14:21:56;;;;;;;6.65;1.50;;;;;;;;;;5093835;28;20043;-81
2023/03/05 14:24:27;;;;;;;3.75;1.33;;;;;;;;;;5074051;28;20044;-81
2023/03/05 14:26:55;;;;;;;7.43;1.90;;;;;;;;;;5093365;28;20044;-81
2023/03/05 14:29:23;;;;;;;5.78;1.50;;;;;;;;;;5092559;28;20048;-81
2023/03/05 14:32:16;;;;;;;5.28;1.60;;;;;;;;;;5092756;28;20043;-81
2023/03/05 14:34:42;;;;;;;5.20;1.50;;;;;;;;;;5092565;28;20112;-81
2023/03/05 14:37:17;;;;;;;3.67;1.27;;;;;;;;;;5092823;28;20499;-81
2023/03/05 14:39:45;;;;;;;6.97;1.60;;;;;;;;;;5092408;28;20093;-81
2023/03/05 14:42:14;;;;;;;7.43;1.75;;;;;;;;;;5093704;28;20438;-81
2023/03/05 14:44:40;;;;;;;7.00;1.73;;;;;;;;;;5092391;28;20050;-81
2023/03/05 14:47:06;;;;;;;5.00;1.70;;;;;;;;;;5093616;28;20035;-81
2023/03/05 14:49:32;;;;;;;5.65;1.85;;;;;;;;;;5093351;28;20044;-81
2023/03/05 14:51:58;;;;;;;6.75;1.80;;;;;;;;;;5093604;28;20131;-80